EWG7HP EDDL-EDXW
Flight info
| Callsign | EWG7HP |
|---|---|
| Flight time | 0h 42m |
| Altitude | 35000 |
| Route | N0433F350 MEVEL1Z MEVEL L179 OSNAD M170 ELSOB Y348 OMWEG DCT BADOS DCT OLDIP DCT |
| Aircraft | A319/M-SDE3FGHIRWY/LB1 |
Departure
| Time | 2026-05-08 13:55 |
|---|---|
| Airport | Düsseldorf Airport (EDDL) |
Arrival
| Time | 2026-05-08 14:37 |
|---|---|
| Airport | Westerland Sylt Airport (EDXW) |
| Time | Latitude | Longitude | Altitude | Speed | Heading |
|---|---|---|---|---|---|
| 2026-05-08 13:15 | 51.28150 | 6.76546 | 118 ft | 0 kts | 96° |
| 2026-05-08 13:47 | 51.28151 | 6.76536 | 118 ft | 4 kts | 96° |
| 2026-05-08 13:47 | 51.28154 | 6.76493 | 117 ft | 4 kts | 96° |
| 2026-05-08 13:47 | 51.28158 | 6.76452 | 116 ft | 4 kts | 112° |
| 2026-05-08 13:48 | 51.28172 | 6.76427 | 115 ft | 3 kts | 187° |
| 2026-05-08 13:48 | 51.28198 | 6.76433 | 116 ft | 4 kts | 187° |
| 2026-05-08 13:48 | 51.28220 | 6.76437 | 116 ft | 4 kts | 193° |
| 2026-05-08 13:48 | 51.28245 | 6.76453 | 113 ft | 4 kts | 219° |
| 2026-05-08 13:49 | 51.28263 | 6.76484 | 116 ft | 4 kts | 238° |
| 2026-05-08 13:49 | 51.28275 | 6.76515 | 113 ft | 4 kts | 233° |
| 2026-05-08 13:49 | 51.28291 | 6.76549 | 114 ft | 4 kts | 233° |
| 2026-05-08 13:49 | 51.28307 | 6.76584 | 113 ft | 4 kts | 233° |
| 2026-05-08 13:50 | 51.28322 | 6.76614 | 114 ft | 1 kts | 233° |
| 2026-05-08 13:51 | 51.28321 | 6.76613 | 114 ft | 1 kts | 232° |
| 2026-05-08 13:51 | 51.28308 | 6.76584 | 113 ft | 5 kts | 234° |
| 2026-05-08 13:51 | 51.28301 | 6.76511 | 115 ft | 9 kts | 290° |
| 2026-05-08 13:52 | 51.28317 | 6.76414 | 115 ft | 12 kts | 243° |
| 2026-05-08 13:52 | 51.28261 | 6.76294 | 117 ft | 15 kts | 233° |
| 2026-05-08 13:52 | 51.28188 | 6.76137 | 117 ft | 20 kts | 232° |
| 2026-05-08 13:52 | 51.28093 | 6.75943 | 116 ft | 25 kts | 233° |
| 2026-05-08 13:53 | 51.27986 | 6.75716 | 116 ft | 24 kts | 233° |
| 2026-05-08 13:53 | 51.27970 | 6.75550 | 116 ft | 15 kts | 322° |
| 2026-05-08 13:53 | 51.28071 | 6.75470 | 116 ft | 11 kts | 344° |
| 2026-05-08 13:53 | 51.28110 | 6.75510 | 116 ft | 0 kts | 54° |
| 2026-05-08 13:54 | 51.28126 | 6.75544 | 117 ft | 24 kts | 53° |
| 2026-05-08 13:54 | 51.28380 | 6.76077 | 117 ft | 93 kts | 53° |
| 2026-05-08 13:54 | 51.28893 | 6.77154 | 121 ft | 149 kts | 53° |
| 2026-05-08 13:54 | 51.29533 | 6.78494 | 685 ft | 149 kts | 53° |
| 2026-05-08 13:55 | 51.30155 | 6.79798 | 1398 ft | 146 kts | 52° |
| 2026-05-08 13:55 | 51.30788 | 6.81121 | 1805 ft | 161 kts | 52° |
| 2026-05-08 13:55 | 51.32273 | 6.84211 | 2719 ft | 189 kts | 52° |
| 2026-05-08 13:56 | 51.33110 | 6.85944 | 3153 ft | 206 kts | 52° |
| 2026-05-08 13:56 | 51.34011 | 6.87904 | 3555 ft | 231 kts | 54° |
| 2026-05-08 13:56 | 51.35148 | 6.89898 | 4047 ft | 255 kts | 34° |
| 2026-05-08 13:56 | 51.36828 | 6.90924 | 4855 ft | 265 kts | 9° |
| 2026-05-08 13:57 | 51.38658 | 6.91484 | 5786 ft | 271 kts | 15° |
| 2026-05-08 13:57 | 51.40441 | 6.92560 | 6757 ft | 276 kts | 21° |
| 2026-05-08 13:57 | 51.42241 | 6.93717 | 7692 ft | 280 kts | 22° |
| 2026-05-08 13:57 | 51.44063 | 6.94899 | 8603 ft | 285 kts | 22° |
| 2026-05-08 13:58 | 51.45890 | 6.96091 | 9505 ft | 289 kts | 22° |
| 2026-05-08 13:58 | 51.47771 | 6.97316 | 10333 ft | 295 kts | 22° |
| 2026-05-08 13:58 | 51.49751 | 6.98599 | 10676 ft | 318 kts | 21° |
| 2026-05-08 13:58 | 51.51872 | 6.99936 | 11154 ft | 332 kts | 21° |
| 2026-05-08 13:59 | 51.54043 | 7.01281 | 11903 ft | 337 kts | 20° |
| 2026-05-08 13:59 | 51.56246 | 7.02640 | 12670 ft | 341 kts | 20° |
| 2026-05-08 13:59 | 51.58474 | 7.04022 | 13433 ft | 346 kts | 20° |
| 2026-05-08 13:59 | 51.60735 | 7.05436 | 14160 ft | 350 kts | 20° |
| 2026-05-08 14:00 | 51.63016 | 7.06865 | 14840 ft | 354 kts | 20° |
| 2026-05-08 14:00 | 51.65320 | 7.08307 | 15535 ft | 357 kts | 20° |
| 2026-05-08 14:00 | 51.67642 | 7.09757 | 16214 ft | 360 kts | 20° |
| 2026-05-08 14:00 | 51.69987 | 7.11221 | 16889 ft | 363 kts | 20° |
| 2026-05-08 14:01 | 51.72323 | 7.12685 | 17557 ft | 366 kts | 19° |
| 2026-05-08 14:01 | 51.74707 | 7.14180 | 18238 ft | 369 kts | 19° |
| 2026-05-08 14:01 | 51.77147 | 7.15709 | 18849 ft | 373 kts | 19° |
| 2026-05-08 14:01 | 51.79541 | 7.17209 | 19409 ft | 376 kts | 19° |
| 2026-05-08 14:02 | 51.81991 | 7.18745 | 19997 ft | 379 kts | 19° |
| 2026-05-08 14:02 | 51.84463 | 7.20301 | 20580 ft | 383 kts | 19° |
| 2026-05-08 14:02 | 51.86966 | 7.21828 | 21155 ft | 386 kts | 18° |
| 2026-05-08 14:02 | 51.89521 | 7.23213 | 21722 ft | 389 kts | 16° |
| 2026-05-08 14:03 | 51.92119 | 7.24506 | 22285 ft | 392 kts | 15° |
| 2026-05-08 14:03 | 51.94747 | 7.25764 | 22841 ft | 395 kts | 14° |
| 2026-05-08 14:03 | 51.97396 | 7.27031 | 23409 ft | 399 kts | 15° |
| 2026-05-08 14:03 | 52.00063 | 7.28355 | 23919 ft | 402 kts | 15° |
| 2026-05-08 14:04 | 52.02744 | 7.29721 | 24382 ft | 405 kts | 16° |
| 2026-05-08 14:04 | 52.05443 | 7.31117 | 24834 ft | 408 kts | 16° |
| 2026-05-08 14:04 | 52.08156 | 7.32529 | 25292 ft | 411 kts | 16° |
| 2026-05-08 14:04 | 52.10888 | 7.33943 | 25742 ft | 413 kts | 15° |
| 2026-05-08 14:05 | 52.13639 | 7.35360 | 26183 ft | 416 kts | 15° |
| 2026-05-08 14:05 | 52.16410 | 7.36785 | 26631 ft | 419 kts | 15° |
| 2026-05-08 14:05 | 52.19201 | 7.38217 | 27065 ft | 421 kts | 15° |
| 2026-05-08 14:05 | 52.22011 | 7.39652 | 27491 ft | 424 kts | 15° |
| 2026-05-08 14:06 | 52.24835 | 7.41095 | 27929 ft | 427 kts | 15° |
| 2026-05-08 14:06 | 52.27674 | 7.42551 | 28355 ft | 429 kts | 15° |
| 2026-05-08 14:06 | 52.30540 | 7.44029 | 28783 ft | 432 kts | 15° |
| 2026-05-08 14:06 | 52.33413 | 7.45515 | 29203 ft | 435 kts | 15° |
| 2026-05-08 14:07 | 52.36284 | 7.47001 | 29617 ft | 438 kts | 15° |
| 2026-05-08 14:07 | 52.39197 | 7.48510 | 30015 ft | 440 kts | 15° |
| 2026-05-08 14:07 | 52.42129 | 7.50033 | 30390 ft | 443 kts | 15° |
| 2026-05-08 14:07 | 52.45076 | 7.51563 | 30717 ft | 446 kts | 15° |
| 2026-05-08 14:08 | 52.48040 | 7.53103 | 31041 ft | 448 kts | 15° |
| 2026-05-08 14:08 | 52.53907 | 7.56167 | 31155 ft | 430 kts | 15° |
| 2026-05-08 14:08 | 52.56721 | 7.57641 | 31161 ft | 419 kts | 15° |
| 2026-05-08 14:09 | 52.59480 | 7.59084 | 31160 ft | 414 kts | 15° |
| 2026-05-08 14:09 | 52.64956 | 7.61948 | 31164 ft | 412 kts | 15° |
| 2026-05-08 14:10 | 52.70420 | 7.64807 | 31159 ft | 412 kts | 15° |
| 2026-05-08 14:10 | 52.75868 | 7.67679 | 31163 ft | 411 kts | 15° |
| 2026-05-08 14:11 | 52.81320 | 7.70571 | 31162 ft | 411 kts | 15° |
| 2026-05-08 14:11 | 52.86767 | 7.73454 | 31159 ft | 411 kts | 15° |
| 2026-05-08 14:12 | 52.92213 | 7.76343 | 31160 ft | 411 kts | 15° |
| 2026-05-08 14:12 | 52.97632 | 7.79233 | 31160 ft | 411 kts | 15° |
| 2026-05-08 14:13 | 53.03071 | 7.82141 | 31158 ft | 411 kts | 15° |
| 2026-05-08 14:13 | 53.05794 | 7.83599 | 30968 ft | 409 kts | 15° |
| 2026-05-08 14:13 | 53.08487 | 7.85044 | 30722 ft | 406 kts | 15° |
| 2026-05-08 14:13 | 53.11164 | 7.86484 | 30474 ft | 404 kts | 15° |
| 2026-05-08 14:14 | 53.13830 | 7.87915 | 30225 ft | 402 kts | 15° |
| 2026-05-08 14:14 | 53.16487 | 7.89338 | 29941 ft | 400 kts | 15° |
| 2026-05-08 14:14 | 53.19126 | 7.90753 | 29650 ft | 398 kts | 15° |
| 2026-05-08 14:14 | 53.21754 | 7.92167 | 29366 ft | 396 kts | 15° |
| 2026-05-08 14:15 | 53.24370 | 7.93578 | 29085 ft | 394 kts | 15° |
| 2026-05-08 14:15 | 53.26940 | 7.94967 | 28812 ft | 392 kts | 15° |
| 2026-05-08 14:15 | 53.29518 | 7.96363 | 28530 ft | 387 kts | 15° |
| 2026-05-08 14:15 | 53.32072 | 7.97746 | 28149 ft | 385 kts | 15° |
| 2026-05-08 14:16 | 53.34613 | 7.99123 | 27772 ft | 382 kts | 15° |
| 2026-05-08 14:16 | 53.37136 | 8.00496 | 27390 ft | 380 kts | 15° |
| 2026-05-08 14:16 | 53.39637 | 8.01861 | 27015 ft | 377 kts | 15° |
| 2026-05-08 14:16 | 53.42125 | 8.03215 | 26636 ft | 374 kts | 15° |
| 2026-05-08 14:17 | 53.44596 | 8.04556 | 26246 ft | 372 kts | 15° |
| 2026-05-08 14:17 | 53.47046 | 8.05889 | 25866 ft | 369 kts | 15° |
| 2026-05-08 14:17 | 53.49478 | 8.07220 | 25484 ft | 366 kts | 15° |
| 2026-05-08 14:17 | 53.51897 | 8.08547 | 25090 ft | 364 kts | 15° |
| 2026-05-08 14:18 | 53.54301 | 8.09865 | 24689 ft | 363 kts | 15° |
| 2026-05-08 14:18 | 53.56690 | 8.11175 | 24291 ft | 361 kts | 15° |
| 2026-05-08 14:18 | 53.59074 | 8.12481 | 23886 ft | 359 kts | 15° |
| 2026-05-08 14:18 | 53.61420 | 8.13770 | 23447 ft | 358 kts | 15° |
| 2026-05-08 14:19 | 53.63773 | 8.15069 | 23033 ft | 354 kts | 15° |
| 2026-05-08 14:19 | 53.66104 | 8.16353 | 22640 ft | 351 kts | 15° |
| 2026-05-08 14:19 | 53.68416 | 8.17624 | 22241 ft | 348 kts | 15° |
| 2026-05-08 14:19 | 53.70704 | 8.18885 | 21844 ft | 345 kts | 15° |
| 2026-05-08 14:20 | 53.72976 | 8.20137 | 21449 ft | 342 kts | 15° |
| 2026-05-08 14:20 | 53.75231 | 8.21381 | 21051 ft | 340 kts | 15° |
| 2026-05-08 14:20 | 53.77472 | 8.22619 | 20660 ft | 338 kts | 15° |
| 2026-05-08 14:20 | 53.79696 | 8.23851 | 20271 ft | 336 kts | 15° |
| 2026-05-08 14:21 | 53.81909 | 8.25087 | 19879 ft | 334 kts | 16° |
| 2026-05-08 14:21 | 53.84112 | 8.26324 | 19487 ft | 333 kts | 16° |
| 2026-05-08 14:21 | 53.86304 | 8.27552 | 19102 ft | 331 kts | 16° |
| 2026-05-08 14:21 | 53.88488 | 8.28771 | 18716 ft | 330 kts | 16° |
| 2026-05-08 14:22 | 53.90664 | 8.29983 | 18307 ft | 329 kts | 16° |
| 2026-05-08 14:22 | 53.92832 | 8.31190 | 17905 ft | 326 kts | 16° |
| 2026-05-08 14:22 | 53.94978 | 8.32387 | 17522 ft | 324 kts | 16° |
| 2026-05-08 14:22 | 53.97110 | 8.33577 | 17150 ft | 321 kts | 17° |
| 2026-05-08 14:23 | 53.99223 | 8.34761 | 16768 ft | 319 kts | 17° |
| 2026-05-08 14:23 | 54.01326 | 8.35941 | 16394 ft | 317 kts | 17° |
| 2026-05-08 14:23 | 54.03412 | 8.37116 | 16023 ft | 315 kts | 17° |
| 2026-05-08 14:23 | 54.05496 | 8.38237 | 15519 ft | 316 kts | 12° |
| 2026-05-08 14:24 | 54.07696 | 8.39020 | 14717 ft | 329 kts | 9° |
| 2026-05-08 14:24 | 54.09949 | 8.39726 | 14254 ft | 328 kts | 9° |
| 2026-05-08 14:24 | 54.12196 | 8.40394 | 13837 ft | 326 kts | 8° |
| 2026-05-08 14:24 | 54.14419 | 8.41047 | 13448 ft | 322 kts | 9° |
| 2026-05-08 14:25 | 54.16585 | 8.41688 | 13073 ft | 318 kts | 9° |
| 2026-05-08 14:25 | 54.18753 | 8.42340 | 12706 ft | 315 kts | 9° |
| 2026-05-08 14:25 | 54.20899 | 8.42989 | 12336 ft | 312 kts | 9° |
| 2026-05-08 14:25 | 54.23026 | 8.43634 | 11966 ft | 309 kts | 9° |
| 2026-05-08 14:26 | 54.25134 | 8.44279 | 11601 ft | 307 kts | 10° |
| 2026-05-08 14:26 | 54.27228 | 8.44928 | 11238 ft | 305 kts | 10° |
| 2026-05-08 14:26 | 54.29308 | 8.45577 | 10874 ft | 303 kts | 10° |
| 2026-05-08 14:26 | 54.31383 | 8.46222 | 10545 ft | 300 kts | 10° |
| 2026-05-08 14:27 | 54.33435 | 8.46858 | 10177 ft | 299 kts | 10° |
| 2026-05-08 14:27 | 54.34791 | 8.47277 | 9923 ft | 299 kts | 11° |
| 2026-05-08 14:27 | 54.36822 | 8.47909 | 9560 ft | 296 kts | 11° |
| 2026-05-08 14:27 | 54.38839 | 8.48537 | 9214 ft | 294 kts | 11° |
| 2026-05-08 14:28 | 54.40837 | 8.49157 | 8851 ft | 291 kts | 11° |
| 2026-05-08 14:28 | 54.42814 | 8.49769 | 8514 ft | 288 kts | 12° |
| 2026-05-08 14:28 | 54.44775 | 8.50376 | 8187 ft | 286 kts | 12° |
| 2026-05-08 14:28 | 54.46727 | 8.50980 | 7871 ft | 282 kts | 12° |
| 2026-05-08 14:29 | 54.48655 | 8.51578 | 7546 ft | 279 kts | 12° |
| 2026-05-08 14:29 | 54.50570 | 8.52176 | 7176 ft | 278 kts | 12° |
| 2026-05-08 14:29 | 54.52469 | 8.52774 | 6823 ft | 277 kts | 13° |
| 2026-05-08 14:29 | 54.54351 | 8.53365 | 6482 ft | 275 kts | 13° |
| 2026-05-08 14:30 | 54.56215 | 8.53950 | 6128 ft | 273 kts | 13° |
| 2026-05-08 14:30 | 54.58075 | 8.54532 | 5834 ft | 269 kts | 13° |
| 2026-05-08 14:30 | 54.59702 | 8.55041 | 5631 ft | 262 kts | 13° |
| 2026-05-08 14:30 | 54.61439 | 8.55583 | 5504 ft | 252 kts | 13° |
| 2026-05-08 14:31 | 54.63133 | 8.56110 | 5306 ft | 245 kts | 13° |
| 2026-05-08 14:31 | 54.64797 | 8.56645 | 5048 ft | 242 kts | 14° |
| 2026-05-08 14:31 | 54.66444 | 8.57202 | 4736 ft | 241 kts | 14° |
| 2026-05-08 14:32 | 54.69727 | 8.58306 | 4094 ft | 240 kts | 10° |
| 2026-05-08 14:32 | 54.71387 | 8.58080 | 3870 ft | 240 kts | 346° |
| 2026-05-08 14:32 | 54.72870 | 8.56796 | 3733 ft | 238 kts | 327° |
| 2026-05-08 14:32 | 54.74203 | 8.55153 | 3608 ft | 231 kts | 327° |
| 2026-05-08 14:33 | 54.75485 | 8.53574 | 3481 ft | 220 kts | 327° |
| 2026-05-08 14:33 | 54.76701 | 8.52081 | 3357 ft | 210 kts | 327° |
| 2026-05-08 14:33 | 54.77873 | 8.50643 | 3117 ft | 204 kts | 327° |
| 2026-05-08 14:33 | 54.79016 | 8.49239 | 2839 ft | 199 kts | 327° |
| 2026-05-08 14:34 | 54.80128 | 8.47871 | 2571 ft | 193 kts | 327° |
| 2026-05-08 14:34 | 54.81199 | 8.46552 | 2322 ft | 183 kts | 327° |
| 2026-05-08 14:34 | 54.82181 | 8.45342 | 2081 ft | 165 kts | 327° |
| 2026-05-08 14:34 | 54.83066 | 8.44251 | 1860 ft | 149 kts | 328° |
| 2026-05-08 14:35 | 54.83893 | 8.43231 | 1670 ft | 144 kts | 327° |
| 2026-05-08 14:35 | 54.84699 | 8.42235 | 1472 ft | 141 kts | 327° |
| 2026-05-08 14:35 | 54.85491 | 8.41247 | 1300 ft | 140 kts | 327° |
| 2026-05-08 14:35 | 54.86279 | 8.40279 | 1056 ft | 138 kts | 328° |
| 2026-05-08 14:36 | 54.87061 | 8.39313 | 878 ft | 137 kts | 327° |
| 2026-05-08 14:36 | 54.87819 | 8.38376 | 736 ft | 132 kts | 327° |
| 2026-05-08 14:36 | 54.88540 | 8.37503 | 537 ft | 125 kts | 326° |
| 2026-05-08 14:36 | 54.89232 | 8.36623 | 395 ft | 122 kts | 324° |
| 2026-05-08 14:37 | 54.89925 | 8.35781 | 218 ft | 121 kts | 324° |
| 2026-05-08 14:37 | 54.90606 | 8.34939 | 70 ft | 118 kts | 324° |
| 2026-05-08 14:37 | 54.91165 | 8.34245 | 57 ft | 76 kts | 324° |
| 2026-05-08 14:37 | 54.91479 | 8.33857 | 57 ft | 48 kts | 324° |
| 2026-05-08 14:38 | 54.91750 | 8.33519 | 56 ft | 35 kts | 324° |
| 2026-05-08 14:38 | 54.91879 | 8.33361 | 56 ft | 15 kts | 325° |
| 2026-05-08 14:38 | 54.91855 | 8.33222 | 58 ft | 16 kts | 204° |
| 2026-05-08 14:38 | 54.91743 | 8.33177 | 58 ft | 18 kts | 181° |
| 2026-05-08 14:39 | 54.91616 | 8.33177 | 51 ft | 14 kts | 180° |
| 2026-05-08 14:39 | 54.91526 | 8.33178 | 58 ft | 14 kts | 179° |
| 2026-05-08 14:39 | 54.91447 | 8.33210 | 53 ft | 8 kts | 152° |
| 2026-05-08 14:39 | 54.91397 | 8.33247 | 55 ft | 9 kts | 170° |
| 2026-05-08 14:40 | 54.91357 | 8.33229 | 58 ft | 4 kts | 237° |
| 2026-05-08 14:40 | 54.91352 | 8.33182 | 58 ft | 4 kts | 270° |
| 2026-05-08 14:40 | 54.91352 | 8.33161 | 55 ft | 0 kts | 270° |
| 2026-05-08 14:43 | 54.91352 | 8.33158 | 55 ft | 0 kts | 270° |
| 2026-05-08 14:43 | 54.91352 | 8.33147 | 57 ft | 1 kts | 270° |
| 2026-05-08 14:43 | 54.91352 | 8.33123 | 58 ft | 2 kts | 270° |
| 2026-05-08 14:43 | 54.91352 | 8.33117 | 58 ft | 0 kts | 271° |